createdAt,value
2023-04-18T00:00:57.417Z,42.55
2023-04-18T00:03:28.063Z,42.42
2023-04-18T00:05:59.146Z,42.19
2023-04-18T00:08:29.297Z,42.04
2023-04-18T00:10:58.507Z,41.73
2023-04-18T00:13:29.282Z,41.03
2023-04-18T00:15:58.264Z,41.34
2023-04-18T00:18:28.381Z,41.24
2023-04-18T00:20:57.740Z,40.88
2023-04-18T00:23:29.206Z,44.27
2023-04-18T00:25:58.239Z,44.63
2023-04-18T00:28:27.475Z,43.35
2023-04-18T00:30:56.970Z,42.43
2023-04-18T00:33:25.897Z,42.60
2023-04-18T00:35:55.800Z,41.13
2023-04-18T00:38:24.781Z,41.68
2023-04-18T00:40:53.981Z,42.63
2023-04-18T00:43:25.712Z,42.78
2023-04-18T00:45:55.233Z,42.75
2023-04-18T00:48:25.529Z,44.48
2023-04-18T00:50:57.196Z,45.79
2023-04-18T00:53:27.183Z,46.24
2023-04-18T00:55:56.985Z,46.54
2023-04-18T00:58:28.042Z,47.26
2023-04-18T01:00:57.567Z,47.26
2023-04-18T01:03:29.607Z,46.03
2023-04-18T01:05:58.884Z,45.28
2023-04-18T01:08:28.832Z,45.09
2023-04-18T01:11:00.408Z,44.97
2023-04-18T01:13:29.957Z,44.66
2023-04-18T01:15:59.876Z,45.06
2023-04-18T01:18:29.151Z,44.71
2023-04-18T01:21:01.553Z,44.75
2023-04-18T01:23:31.869Z,44.83
2023-04-18T01:26:00.832Z,44.38
2023-04-18T01:28:30.714Z,44.22
2023-04-18T01:30:59.930Z,44.17
2023-04-18T01:33:29.025Z,44.28
2023-04-18T01:35:57.942Z,44.18
2023-04-18T01:38:27.069Z,44.12
2023-04-18T01:40:56.153Z,44.60
2023-04-18T01:43:25.195Z,44.66
2023-04-18T01:45:54.711Z,44.83
2023-04-18T01:48:25.514Z,45.13
2023-04-18T01:50:55.054Z,45.60
2023-04-18T01:53:25.720Z,45.44
2023-04-18T01:55:54.724Z,46.44
2023-04-18T01:58:24.777Z,46.84
2023-04-18T02:00:55.087Z,46.97
2023-04-18T02:03:24.526Z,47.32
2023-04-18T02:05:54.378Z,47.93
2023-04-18T02:08:23.922Z,47.95
2023-04-18T02:10:52.981Z,48.23
2023-04-18T02:13:22.559Z,48.97
2023-04-18T02:15:51.992Z,49.89
2023-04-18T02:18:20.899Z,49.95
2023-04-18T02:20:49.873Z,50.13
2023-04-18T02:23:19.551Z,50.58
2023-04-18T02:25:49.434Z,50.52
2023-04-18T02:28:19.757Z,50.89
2023-04-18T02:30:49.052Z,50.84
2023-04-18T02:33:17.767Z,51.38
2023-04-18T02:35:47.487Z,51.06
2023-04-18T02:38:17.828Z,51.89
2023-04-18T02:40:47.060Z,52.15
2023-04-18T02:43:15.999Z,51.91
2023-04-18T02:45:45.079Z,51.66
2023-04-18T02:48:13.880Z,51.83
2023-04-18T02:50:43.087Z,51.93
2023-04-18T02:53:12.338Z,52.72
2023-04-18T02:56:01.570Z,52.55
2023-04-18T02:58:50.937Z,54.31
2023-04-18T03:01:37.181Z,53.48
2023-04-18T03:04:18.520Z,53.60
2023-04-18T03:06:57.043Z,53.67
2023-04-18T03:09:27.859Z,53.42
2023-04-18T03:12:03.293Z,52.81
2023-04-18T03:14:33.505Z,52.55
2023-04-18T03:17:02.406Z,52.48
2023-04-18T03:19:38.395Z,51.95
2023-04-18T03:22:12.623Z,52.43
2023-04-18T03:24:48.746Z,52.92
2023-04-18T03:27:19.574Z,51.65
2023-04-18T03:29:49.677Z,50.94
2023-04-18T03:32:19.447Z,51.49
2023-04-18T03:34:48.523Z,50.62
2023-04-18T03:37:17.562Z,50.73
2023-04-18T03:39:52.358Z,50.17
2023-04-18T03:42:27.253Z,50.31
2023-04-18T03:44:56.427Z,49.41
2023-04-18T03:47:25.475Z,49.74
2023-04-18T03:49:58.725Z,49.73
2023-04-18T03:52:29.914Z,48.52
2023-04-18T03:54:59.205Z,48.53
2023-04-18T03:57:34.382Z,49.11
2023-04-18T04:00:09.074Z,47.93
2023-04-18T04:02:57.368Z,48.01
2023-04-18T04:05:26.790Z,47.17
2023-04-18T04:07:55.778Z,47.27
2023-04-18T04:10:25.140Z,47.82
2023-04-18T04:12:55.655Z,47.65
2023-04-18T04:15:25.387Z,48.17
2023-04-18T04:18:01.147Z,47.72
2023-04-18T04:20:32.369Z,47.85
2023-04-18T04:23:09.651Z,48.08
2023-04-18T04:25:40.585Z,48.57
2023-04-18T04:28:23.862Z,47.65
2023-04-18T04:30:58.719Z,47.71
2023-04-18T04:33:30.943Z,46.95
2023-04-18T04:36:04.756Z,47.94
2023-04-18T04:38:34.895Z,47.75
2023-04-18T04:41:04.922Z,47.70
2023-04-18T04:43:36.165Z,48.00
2023-04-18T04:46:08.580Z,47.44
2023-04-18T04:48:37.924Z,47.27
2023-04-18T04:51:06.986Z,47.27
2023-04-18T04:53:36.864Z,47.14
2023-04-18T04:56:07.145Z,48.05
2023-04-18T04:58:37.495Z,46.90
2023-04-18T05:01:14.442Z,47.12
2023-04-18T05:03:44.060Z,46.59
2023-04-18T05:06:13.504Z,46.79
2023-04-18T05:08:42.167Z,46.39
2023-04-18T05:11:11.227Z,47.36
2023-04-18T05:13:40.228Z,47.31
2023-04-18T05:16:09.898Z,47.02
2023-04-18T05:18:41.403Z,46.67
2023-04-18T05:21:10.386Z,46.24
2023-04-18T05:23:39.305Z,46.68
2023-04-18T05:26:08.667Z,45.95
2023-04-18T05:28:38.266Z,45.55
2023-04-18T05:31:08.160Z,45.79
2023-04-18T05:33:37.521Z,45.28
2023-04-18T05:36:07.617Z,45.22
2023-04-18T05:38:37.148Z,46.12
2023-04-18T05:41:06.502Z,45.76
2023-04-18T05:43:36.559Z,45.38
2023-04-18T05:46:06.207Z,46.23
2023-04-18T05:48:35.270Z,45.38
2023-04-18T05:51:06.069Z,45.42
2023-04-18T05:53:35.574Z,45.82
2023-04-18T05:56:04.669Z,46.61
2023-04-18T05:58:33.943Z,45.98
2023-04-18T06:01:02.755Z,45.83
2023-04-18T06:03:32.436Z,45.64
2023-04-18T06:06:01.975Z,45.95
2023-04-18T06:08:31.175Z,45.30
2023-04-18T06:11:00.568Z,45.01
2023-04-18T06:13:30.368Z,44.45
2023-04-18T06:15:59.686Z,43.95
2023-04-18T06:18:29.273Z,43.83
2023-04-18T06:20:59.057Z,44.51
2023-04-18T06:23:28.007Z,43.80
2023-04-18T06:25:58.258Z,43.44
2023-04-18T06:28:28.190Z,43.78
2023-04-18T06:30:57.812Z,43.46
2023-04-18T06:33:26.951Z,43.94
2023-04-18T06:35:56.137Z,42.12
2023-04-18T06:38:25.372Z,42.96
2023-04-18T06:40:54.823Z,42.45
2023-04-18T06:43:24.286Z,42.94
2023-04-18T06:45:53.531Z,42.76
2023-04-18T06:48:22.657Z,42.82
2023-04-18T06:50:52.582Z,41.54
2023-04-18T06:53:22.139Z,41.10
2023-04-18T06:55:51.633Z,41.34
2023-04-18T06:58:20.948Z,40.93
2023-04-18T07:00:52.947Z,40.48
2023-04-18T07:03:23.017Z,40.20
2023-04-18T07:05:52.693Z,39.85
2023-04-18T07:08:21.936Z,39.25
2023-04-18T07:13:40.057Z,39.45
2023-04-18T07:16:10.730Z,38.25
2023-04-18T07:18:40.157Z,37.81
2023-04-18T07:21:08.997Z,37.60
2023-04-18T07:23:38.911Z,37.75
2023-04-18T07:26:10.558Z,37.54
2023-04-18T07:28:40.088Z,38.46
2023-04-18T07:31:12.520Z,37.26
2023-04-18T07:33:42.868Z,36.10
2023-04-18T07:39:30.328Z,36.55
2023-04-18T07:41:59.812Z,36.39
2023-04-18T07:44:28.813Z,36.23
2023-04-18T07:46:59.395Z,36.42
2023-04-18T07:49:31.883Z,36.18
2023-04-18T07:52:02.845Z,36.49
2023-04-18T07:54:33.513Z,36.88
2023-04-18T07:57:02.835Z,35.91
2023-04-18T07:59:33.452Z,35.26
2023-04-18T08:02:03.049Z,34.63
2023-04-18T08:04:32.074Z,34.59
2023-04-18T08:07:01.518Z,34.83
2023-04-18T08:09:30.795Z,34.29
2023-04-18T08:12:00.575Z,34.08
2023-04-18T08:14:31.393Z,33.16
2023-04-18T08:17:01.288Z,33.07
2023-04-18T08:19:30.752Z,33.03
2023-04-18T08:22:12.115Z,33.38
2023-04-18T08:24:48.625Z,33.27
2023-04-18T08:27:30.516Z,32.61
2023-04-18T08:29:59.870Z,32.98
2023-04-18T08:32:29.465Z,33.47
2023-04-18T08:38:15.019Z,32.03
2023-04-18T08:40:45.943Z,31.41
2023-04-18T08:43:18.363Z,30.82
2023-04-18T08:45:48.274Z,30.87
2023-04-18T08:48:19.555Z,30.16
2023-04-18T08:50:48.755Z,30.22
2023-04-18T08:53:19.506Z,30.94
2023-04-18T08:55:51.577Z,30.72
2023-04-18T08:58:28.461Z,30.61
2023-04-18T09:00:57.889Z,29.27
2023-04-18T09:03:43.605Z,29.10
2023-04-18T09:06:15.297Z,30.22
2023-04-18T09:08:45.522Z,29.70
2023-04-18T09:11:24.925Z,29.03
2023-04-18T09:13:57.113Z,29.28
2023-04-18T09:16:26.345Z,29.01
2023-04-18T09:19:13.611Z,29.00
2023-04-18T09:21:49.594Z,29.19
2023-04-18T09:24:27.478Z,29.05
2023-04-18T09:26:59.576Z,30.05
2023-04-18T09:29:57.810Z,29.82
2023-04-18T09:32:30.243Z,29.76
2023-04-18T09:35:04.384Z,30.01
2023-04-18T09:37:33.952Z,29.48
2023-04-18T09:40:19.298Z,30.16
2023-04-18T09:42:51.688Z,30.69
2023-04-18T09:45:21.419Z,29.77
2023-04-18T09:47:50.612Z,31.25
2023-04-18T09:50:21.783Z,31.64
2023-04-18T09:52:50.791Z,31.68
2023-04-18T09:55:20.876Z,31.67
2023-04-18T09:57:52.471Z,30.96
2023-04-18T10:00:26.249Z,30.29
2023-04-18T10:03:00.837Z,30.83
2023-04-18T10:05:35.070Z,30.37
2023-04-18T10:08:06.030Z,30.40
2023-04-18T10:10:35.241Z,30.76
2023-04-18T10:13:06.339Z,30.73
2023-04-18T10:15:35.984Z,30.82
2023-04-18T10:18:12.008Z,30.46
2023-04-18T10:20:42.825Z,29.32
2023-04-18T10:23:33.498Z,29.58
2023-04-18T10:26:05.131Z,30.83
2023-04-18T10:28:57.967Z,31.24
2023-04-18T10:31:29.370Z,31.27
2023-04-18T10:34:17.720Z,30.62
2023-04-18T10:37:06.244Z,30.49
2023-04-18T10:39:55.543Z,30.79
2023-04-18T10:42:49.736Z,31.07
2023-04-18T10:45:23.183Z,31.82
2023-04-18T10:47:52.553Z,31.94
2023-04-18T10:50:21.713Z,31.78
2023-04-18T10:52:50.943Z,31.83
2023-04-18T10:55:27.545Z,31.18
2023-04-18T10:57:59.837Z,31.92
2023-04-18T11:00:30.814Z,32.38
2023-04-18T11:03:01.633Z,32.05
2023-04-18T11:05:30.994Z,32.23
2023-04-18T11:08:00.086Z,32.54
2023-04-18T11:10:29.229Z,32.21
2023-04-18T11:13:05.532Z,32.53
2023-04-18T11:23:42.624Z,31.71
2023-04-18T11:26:16.262Z,31.08
2023-04-18T11:28:45.636Z,31.77
2023-04-18T11:31:17.391Z,31.15
2023-04-18T11:33:51.751Z,31.17
2023-04-18T11:36:20.887Z,31.17
2023-04-18T11:38:50.014Z,30.51
2023-04-18T11:41:19.194Z,30.42
2023-04-18T11:43:48.464Z,30.08
2023-04-18T11:46:17.559Z,30.91
2023-04-18T11:48:47.562Z,31.17
2023-04-18T11:51:39.802Z,31.06
2023-04-18T11:54:39.756Z,30.56
2023-04-18T11:57:22.159Z,30.16
2023-04-18T11:59:58.868Z,29.65
2023-04-18T12:02:40.189Z,30.13
2023-04-18T12:05:10.846Z,30.03
2023-04-18T12:07:42.725Z,29.94
2023-04-18T12:10:27.316Z,30.74
2023-04-18T12:13:09.905Z,30.99
2023-04-18T12:16:03.654Z,30.59
2023-04-18T12:18:33.620Z,30.81
2023-04-18T12:21:06.844Z,30.94
2023-04-18T12:23:43.045Z,31.24
2023-04-18T12:26:19.196Z,31.13
2023-04-18T12:28:51.535Z,31.04
2023-04-18T12:31:22.487Z,31.41
2023-04-18T12:33:52.489Z,31.51
2023-04-18T12:36:24.072Z,31.83
2023-04-18T12:38:53.283Z,31.72
2023-04-18T12:41:22.188Z,31.65
2023-04-18T12:43:51.400Z,31.41
2023-04-18T12:46:20.551Z,31.05
2023-04-18T12:48:49.648Z,31.41
2023-04-18T12:51:18.601Z,31.54
2023-04-18T12:53:47.836Z,31.57
2023-04-18T12:56:17.268Z,31.93
2023-04-18T12:58:46.635Z,31.89
2023-04-18T13:01:16.177Z,31.69
2023-04-18T13:03:48.701Z,32.32
2023-04-18T13:06:23.575Z,32.21
2023-04-18T13:08:52.517Z,31.83
2023-04-18T13:11:23.478Z,31.87
2023-04-18T13:13:52.591Z,31.86
2023-04-18T13:16:22.010Z,31.64
2023-04-18T13:18:51.360Z,32.10
2023-04-18T13:21:20.308Z,32.61
2023-04-18T13:23:49.354Z,32.27
2023-04-18T13:26:18.435Z,32.92
2023-04-18T13:28:47.586Z,32.44
2023-04-18T13:31:17.230Z,32.59
2023-04-18T13:33:46.810Z,33.16
2023-04-18T13:36:15.616Z,33.50
2023-04-18T13:38:45.124Z,33.40
2023-04-18T13:41:14.151Z,33.94
2023-04-18T13:43:43.479Z,33.62
2023-04-18T13:46:13.374Z,34.53
2023-04-18T13:48:42.522Z,34.70
2023-04-18T13:51:11.706Z,34.61
2023-04-18T13:53:40.802Z,34.71
2023-04-18T13:56:10.736Z,34.69
2023-04-18T13:58:39.632Z,35.44
2023-04-18T14:01:08.857Z,35.09
2023-04-18T14:03:39.449Z,35.38
2023-04-18T14:06:09.732Z,35.72
2023-04-18T14:08:39.417Z,35.23
2023-04-18T14:11:08.873Z,35.69
2023-04-18T14:13:38.899Z,35.92
2023-04-18T14:16:08.758Z,35.69
2023-04-18T14:18:37.851Z,35.46
2023-04-18T14:21:07.597Z,36.19
2023-04-18T14:23:36.893Z,36.01
2023-04-18T14:26:07.005Z,36.53
2023-04-18T14:28:36.281Z,35.86
2023-04-18T14:31:07.392Z,36.20
2023-04-18T14:33:36.949Z,36.19
2023-04-18T14:36:06.622Z,36.13
2023-04-18T14:38:36.833Z,36.21
2023-04-18T14:41:06.846Z,36.30
2023-04-18T14:43:36.261Z,36.12
2023-04-18T14:46:12.259Z,36.42
2023-04-18T14:48:41.492Z,36.73
2023-04-18T14:51:10.616Z,36.61
2023-04-18T14:53:40.029Z,36.51
2023-04-18T14:56:09.644Z,36.28
2023-04-18T14:58:39.603Z,36.76
2023-04-18T15:01:08.518Z,37.20
2023-04-18T15:03:37.892Z,36.49
2023-04-18T15:06:07.594Z,36.74
2023-04-18T15:08:37.230Z,36.83
2023-04-18T15:11:09.731Z,37.15
2023-04-18T15:13:39.570Z,37.14
2023-04-18T15:16:08.945Z,36.82
2023-04-18T15:18:38.025Z,37.34
2023-04-18T15:21:07.656Z,37.00
2023-04-18T15:23:37.485Z,37.06
2023-04-18T15:26:07.329Z,37.68
2023-04-18T15:28:36.546Z,37.90
2023-04-18T15:31:08.512Z,37.86
2023-04-18T15:33:37.605Z,37.93
2023-04-18T15:36:06.790Z,38.25
2023-04-18T15:38:36.476Z,38.45
2023-04-18T15:41:05.362Z,38.83
2023-04-18T15:43:34.503Z,38.74
2023-04-18T15:46:03.833Z,39.13
2023-04-18T15:48:35.153Z,39.38
2023-04-18T15:51:05.101Z,39.85
2023-04-18T15:53:34.172Z,39.80
2023-04-18T15:56:03.377Z,40.25
2023-04-18T15:58:32.833Z,40.07
2023-04-18T16:01:02.353Z,40.16
2023-04-18T16:03:31.697Z,40.68
2023-04-18T16:06:00.923Z,40.56
2023-04-18T16:08:32.671Z,40.86
2023-04-18T16:11:02.681Z,40.91
2023-04-18T16:13:31.994Z,41.10
2023-04-18T16:16:01.267Z,41.10
2023-04-18T16:18:30.466Z,41.27
2023-04-18T16:21:00.019Z,41.10
2023-04-18T16:23:29.116Z,41.89
2023-04-18T16:25:58.530Z,42.31
2023-04-18T16:28:27.670Z,42.49
2023-04-18T16:30:56.537Z,42.72
2023-04-18T16:33:27.126Z,43.22
2023-04-18T16:36:03.702Z,43.88
2023-04-18T16:38:33.147Z,43.33
2023-04-18T16:41:02.669Z,43.49
2023-04-18T16:43:32.027Z,43.55
2023-04-18T16:46:01.667Z,43.72
2023-04-18T16:48:30.672Z,44.00
2023-04-18T16:51:00.290Z,44.01
2023-04-18T16:53:29.641Z,43.95
2023-04-18T16:56:02.286Z,43.94
2023-04-18T16:58:31.534Z,43.95
2023-04-18T17:01:03.538Z,44.02
2023-04-18T17:03:33.011Z,44.15
2023-04-18T17:06:03.196Z,44.38
2023-04-18T17:08:51.214Z,44.41
2023-04-18T17:11:22.058Z,44.49
2023-04-18T17:13:52.377Z,44.73
2023-04-18T17:16:21.560Z,45.42
2023-04-18T17:18:50.515Z,45.01
2023-04-18T17:21:19.961Z,45.21
2023-04-18T17:23:48.923Z,45.54
2023-04-18T17:26:18.207Z,45.94
2023-04-18T17:28:47.136Z,45.53
2023-04-18T17:31:16.676Z,46.11
2023-04-18T17:33:46.199Z,46.11
2023-04-18T17:36:15.332Z,46.38
2023-04-18T17:38:50.123Z,45.99
2023-04-18T17:41:20.798Z,46.95
2023-04-18T17:43:52.070Z,46.29
2023-04-18T17:46:21.446Z,46.89
2023-04-18T17:48:50.409Z,47.60
2023-04-18T17:51:20.557Z,47.31
2023-04-18T17:53:49.645Z,47.63
2023-04-18T17:56:18.544Z,47.82
2023-04-18T17:58:48.377Z,47.47
2023-04-18T18:01:23.062Z,47.79
2023-04-18T18:03:54.676Z,48.28
2023-04-18T18:06:24.322Z,48.04
2023-04-18T18:08:53.158Z,48.41
2023-04-18T18:11:22.572Z,48.44
2023-04-18T18:13:55.481Z,48.58
2023-04-18T18:16:26.071Z,48.28
2023-04-18T18:18:55.599Z,48.02
2023-04-18T18:21:24.640Z,48.92
2023-04-18T18:23:53.842Z,48.31
2023-04-18T18:26:23.013Z,48.85
2023-04-18T18:28:52.044Z,49.21
2023-04-18T18:31:23.924Z,49.10
2023-04-18T18:33:53.720Z,49.51
2023-04-18T18:36:22.728Z,49.43
2023-04-18T18:38:52.051Z,49.21
2023-04-18T18:41:24.054Z,50.01
2023-04-18T18:43:53.950Z,49.45
2023-04-18T18:46:22.970Z,49.59
2023-04-18T18:48:53.065Z,50.21
2023-04-18T18:51:22.215Z,49.76
2023-04-18T18:53:51.693Z,49.39
2023-04-18T18:56:20.974Z,49.25
2023-04-18T18:58:49.995Z,49.44
2023-04-18T19:01:19.141Z,50.21
2023-04-18T19:03:48.613Z,50.14
2023-04-18T19:06:17.738Z,50.88
2023-04-18T19:08:47.435Z,50.14
2023-04-18T19:11:17.159Z,50.87
2023-04-18T19:13:46.459Z,50.83
2023-04-18T19:16:15.745Z,50.82
2023-04-18T19:18:48.331Z,50.97
2023-04-18T19:21:18.594Z,50.94
2023-04-18T19:23:47.772Z,50.16
2023-04-18T19:26:16.863Z,50.61
2023-04-18T19:28:46.739Z,50.62
2023-04-18T19:31:15.740Z,50.31
2023-04-18T19:33:44.988Z,51.23
2023-04-18T19:36:14.220Z,51.49
2023-04-18T19:38:43.567Z,50.34
2023-04-18T19:41:12.893Z,51.58
2023-04-18T19:43:43.526Z,50.75
2023-04-18T19:46:13.013Z,51.92
2023-04-18T19:48:42.022Z,51.43
2023-04-18T19:51:11.344Z,51.42
2023-04-18T19:53:40.807Z,51.28
2023-04-18T19:56:12.118Z,51.36
2023-04-18T19:58:46.281Z,51.27
2023-04-18T20:01:20.052Z,52.12
2023-04-18T20:03:50.616Z,52.05
2023-04-18T20:06:21.436Z,51.27
2023-04-18T20:08:51.498Z,51.82
2023-04-18T20:11:21.898Z,51.42
2023-04-18T20:13:53.785Z,51.47
2023-04-18T20:16:25.206Z,51.54
2023-04-18T20:18:56.995Z,51.66
2023-04-18T20:21:29.677Z,50.85
2023-04-18T20:24:02.430Z,51.36
2023-04-18T20:26:35.696Z,52.01
2023-04-18T20:29:09.029Z,51.92
2023-04-18T20:31:44.614Z,51.77
2023-04-18T20:34:16.755Z,51.67
2023-04-18T20:36:48.808Z,51.61
2023-04-18T20:39:20.807Z,51.03
2023-04-18T20:41:55.106Z,50.52
2023-04-18T20:44:27.069Z,49.75
2023-04-18T20:47:00.332Z,50.12
2023-04-18T20:49:32.534Z,50.06
2023-04-18T20:52:05.083Z,50.54
2023-04-18T20:54:37.912Z,50.79
2023-04-18T20:57:10.072Z,50.23
2023-04-18T20:59:43.200Z,50.35
2023-04-18T21:02:14.902Z,50.73
2023-04-18T21:04:49.755Z,51.05
2023-04-18T21:07:25.690Z,50.63
2023-04-18T21:09:59.835Z,48.40
2023-04-18T21:12:31.093Z,48.98
2023-04-18T21:15:03.856Z,49.97
2023-04-18T21:17:36.065Z,51.36
2023-04-18T21:20:10.248Z,52.88
2023-04-18T21:22:42.317Z,53.62
2023-04-18T21:25:15.058Z,55.14
2023-04-18T21:27:47.168Z,56.22
2023-04-18T21:30:20.474Z,58.50
2023-04-18T21:32:53.447Z,58.68
2023-04-18T21:35:26.738Z,59.35
2023-04-18T21:37:59.395Z,59.37
2023-04-18T21:40:33.706Z,60.22
2023-04-18T21:43:05.711Z,60.02
2023-04-18T21:45:37.659Z,59.91
2023-04-18T21:48:13.156Z,60.59
2023-04-18T21:50:45.798Z,60.01
2023-04-18T21:53:17.914Z,60.40
2023-04-18T21:55:49.943Z,61.12
2023-04-18T21:58:23.465Z,61.73
2023-04-18T22:00:56.444Z,62.02
2023-04-18T22:03:30.247Z,63.16
2023-04-18T22:06:04.125Z,64.58
2023-04-18T22:08:37.074Z,65.41
2023-04-18T22:11:10.500Z,66.51
2023-04-18T22:13:46.760Z,66.04
2023-04-18T22:16:19.586Z,66.11
2023-04-18T22:18:51.436Z,66.86
2023-04-18T22:21:23.560Z,66.93
2023-04-18T22:24:00.578Z,67.70
2023-04-18T22:26:32.826Z,68.40
2023-04-18T22:29:05.972Z,67.99
2023-04-18T22:31:38.182Z,67.69
2023-04-18T22:34:10.289Z,67.47
2023-04-18T22:36:42.327Z,67.10
2023-04-18T22:39:15.150Z,68.00
2023-04-18T22:41:47.167Z,68.46
2023-04-18T22:44:21.908Z,68.15
2023-04-18T22:46:56.721Z,68.28
2023-04-18T22:49:30.369Z,68.97
2023-04-18T22:52:02.823Z,69.96
2023-04-18T22:54:35.602Z,70.60
2023-04-18T22:57:08.958Z,71.13
2023-04-18T22:59:41.185Z,70.80
2023-04-18T23:02:14.637Z,70.85
2023-04-18T23:04:48.250Z,70.56
2023-04-18T23:07:21.611Z,70.56
2023-04-18T23:09:54.256Z,70.60
2023-04-18T23:12:26.318Z,70.96
2023-04-18T23:14:59.965Z,70.14
2023-04-18T23:17:32.464Z,70.33
2023-04-18T23:20:07.370Z,69.75
2023-04-18T23:22:41.599Z,69.64
2023-04-18T23:25:14.820Z,68.84
2023-04-18T23:27:47.588Z,68.61
2023-04-18T23:30:20.061Z,69.05
2023-04-18T23:32:51.604Z,68.45
2023-04-18T23:35:24.523Z,68.61
2023-04-18T23:37:55.544Z,68.86
2023-04-18T23:40:27.691Z,68.91
2023-04-18T23:43:00.385Z,68.67
2023-04-18T23:45:31.236Z,68.28
2023-04-18T23:48:03.389Z,68.44
2023-04-18T23:50:37.378Z,68.21
2023-04-18T23:53:09.408Z,68.15
2023-04-18T23:55:42.060Z,68.36
2023-04-18T23:58:14.476Z,68.21
